createdAt,value
2022-12-24T00:00:31.806Z,65.98
2022-12-24T00:05:39.053Z,66.20
2022-12-24T00:10:42.575Z,66.41
2022-12-24T00:15:45.989Z,66.91
2022-12-24T00:20:50.947Z,66.55
2022-12-24T00:25:54.097Z,66.75
2022-12-24T00:30:57.525Z,67.21
2022-12-24T00:36:02.457Z,67.43
2022-12-24T00:41:06.383Z,66.37
2022-12-24T00:46:09.709Z,67.05
2022-12-24T00:51:14.671Z,66.26
2022-12-24T00:56:18.575Z,66.75
2022-12-24T01:01:22.750Z,67.21
2022-12-24T01:06:27.744Z,67.37
2022-12-24T01:11:30.811Z,66.06
2022-12-24T01:16:34.395Z,66.75
2022-12-24T01:21:39.244Z,67.14
2022-12-24T01:26:42.565Z,67.02
2022-12-24T01:31:46.011Z,66.46
2022-12-24T01:36:50.897Z,65.64
2022-12-24T01:42:11.707Z,66.91
2022-12-24T01:47:19.884Z,66.32
2022-12-24T01:52:28.225Z,67.00
2022-12-24T01:57:36.092Z,66.28
2022-12-24T02:02:41.660Z,67.33
2022-12-24T02:07:47.358Z,67.05
2022-12-24T02:12:52.537Z,66.52
2022-12-24T02:18:02.448Z,67.56
2022-12-24T02:23:28.059Z,67.33
2022-12-24T02:28:47.926Z,66.98
2022-12-24T02:34:01.874Z,67.65
2022-12-24T02:39:10.395Z,67.47
2022-12-24T02:44:13.970Z,67.26
2022-12-24T02:49:18.698Z,66.96
2022-12-24T02:54:22.077Z,67.05
2022-12-24T02:59:43.876Z,67.48
2022-12-24T03:04:56.825Z,67.16
2022-12-24T03:10:13.515Z,67.41
2022-12-24T03:15:20.185Z,67.92
2022-12-24T03:20:32.669Z,67.15
2022-12-24T03:25:40.024Z,67.41
2022-12-24T03:30:44.802Z,67.28
2022-12-24T03:35:49.523Z,67.09
2022-12-24T03:40:52.995Z,67.91
2022-12-24T03:45:56.546Z,67.35
2022-12-24T03:51:01.286Z,68.07
2022-12-24T03:56:04.960Z,67.86
2022-12-24T04:01:08.603Z,68.24
2022-12-24T04:06:16.279Z,67.66
2022-12-24T04:11:19.680Z,68.27
2022-12-24T04:16:23.293Z,67.92
2022-12-24T04:21:28.167Z,67.91
2022-12-24T04:26:31.737Z,67.90
2022-12-24T04:31:35.277Z,68.15
2022-12-24T04:36:40.385Z,68.33
2022-12-24T04:41:43.725Z,68.28
2022-12-24T04:46:47.077Z,68.34
2022-12-24T04:51:51.787Z,69.25
2022-12-24T04:56:55.393Z,68.76
2022-12-24T05:01:58.962Z,68.37
2022-12-24T05:07:03.806Z,69.77
2022-12-24T05:12:07.541Z,69.79
2022-12-24T05:17:11.188Z,69.46
2022-12-24T05:22:33.585Z,68.44
2022-12-24T05:27:37.455Z,69.68
2022-12-24T05:32:40.787Z,69.39
2022-12-24T05:37:45.542Z,68.61
2022-12-24T05:42:48.890Z,68.17
2022-12-24T05:47:52.238Z,68.30
2022-12-24T05:52:56.957Z,68.75
2022-12-24T05:58:00.263Z,69.29
2022-12-24T06:03:03.839Z,68.19
2022-12-24T06:08:08.897Z,68.59
2022-12-24T06:13:12.019Z,68.38
2022-12-24T06:18:15.318Z,67.70
2022-12-24T06:23:20.591Z,67.86
2022-12-24T06:28:24.012Z,68.42
2022-12-24T06:33:27.333Z,68.45
2022-12-24T06:38:32.781Z,68.30
2022-12-24T06:43:36.904Z,67.69
2022-12-24T06:48:40.187Z,67.47
2022-12-24T06:53:45.158Z,67.97
2022-12-24T06:58:48.808Z,68.01
2022-12-24T07:03:52.378Z,68.01
2022-12-24T07:08:57.228Z,68.30
2022-12-24T07:14:00.759Z,69.12
2022-12-24T07:19:04.784Z,68.71
2022-12-24T07:24:09.739Z,67.62
2022-12-24T07:29:12.881Z,68.33
2022-12-24T07:34:16.454Z,68.14
2022-12-24T07:39:21.209Z,68.54
2022-12-24T07:44:25.277Z,68.24
2022-12-24T07:49:28.844Z,67.88
2022-12-24T07:54:33.801Z,68.01
2022-12-24T07:59:36.853Z,67.57
2022-12-24T08:04:40.696Z,68.33
2022-12-24T08:09:46.298Z,68.42
2022-12-24T08:14:49.615Z,68.12
2022-12-24T08:19:52.917Z,67.47
2022-12-24T08:24:57.981Z,66.97
2022-12-24T08:30:01.362Z,67.20
2022-12-24T08:35:05.148Z,67.91
2022-12-24T08:40:11.473Z,67.91
2022-12-24T08:45:15.009Z,67.73
2022-12-24T08:50:18.490Z,68.04
2022-12-24T08:55:23.349Z,66.99
2022-12-24T09:00:26.431Z,67.12
2022-12-24T09:05:30.364Z,67.25
2022-12-24T09:10:35.149Z,67.52
2022-12-24T09:15:38.524Z,66.65
2022-12-24T09:20:46.719Z,67.06
2022-12-24T09:25:52.134Z,67.31
2022-12-24T09:30:59.785Z,66.84
2022-12-24T09:36:03.849Z,66.63
2022-12-24T09:41:16.093Z,66.18
2022-12-24T09:46:24.304Z,66.53
2022-12-24T09:51:33.517Z,66.88
2022-12-24T09:56:41.708Z,66.42
2022-12-24T10:01:45.331Z,66.52
2022-12-24T10:07:00.014Z,66.18
2022-12-24T10:12:10.950Z,66.84
2022-12-24T10:17:31.263Z,65.86
2022-12-24T10:22:42.484Z,65.70
2022-12-24T10:27:47.927Z,65.79
2022-12-24T10:32:54.004Z,66.71
2022-12-24T10:37:58.576Z,66.29
2022-12-24T10:43:03.447Z,66.17
2022-12-24T10:48:13.554Z,66.06
2022-12-24T10:53:21.624Z,65.42
2022-12-24T10:58:26.532Z,65.31
2022-12-24T11:03:33.425Z,65.41
2022-12-24T11:08:37.992Z,66.10
2022-12-24T11:13:46.216Z,66.00
2022-12-24T11:18:52.627Z,65.54
2022-12-24T11:23:58.757Z,65.94
2022-12-24T11:29:15.145Z,65.29
2022-12-24T11:34:27.266Z,65.64
2022-12-24T11:39:30.693Z,66.36
2022-12-24T11:44:35.969Z,65.68
2022-12-24T11:49:39.455Z,65.96
2022-12-24T11:54:53.054Z,65.47
2022-12-24T11:59:57.849Z,66.21
2022-12-24T12:05:10.288Z,65.77
2022-12-24T12:10:25.780Z,66.08
2022-12-24T12:15:35.679Z,66.46
2022-12-24T12:20:43.116Z,66.25
2022-12-24T12:25:55.461Z,65.89
2022-12-24T12:31:07.035Z,65.97
2022-12-24T12:36:17.235Z,65.63
2022-12-24T12:41:28.638Z,65.63
2022-12-24T12:46:45.243Z,66.39
2022-12-24T12:51:58.191Z,65.12
2022-12-24T12:57:09.038Z,65.19
2022-12-24T13:02:30.074Z,65.04
2022-12-24T13:07:53.128Z,64.50
2022-12-24T13:13:20.615Z,64.73
2022-12-24T13:18:54.481Z,65.03
2022-12-24T13:24:08.143Z,65.02
2022-12-24T13:29:39.621Z,64.62
2022-12-24T13:34:50.108Z,64.84
2022-12-24T13:40:17.102Z,64.61
2022-12-24T13:45:49.700Z,64.40
2022-12-24T13:50:56.738Z,64.87
2022-12-24T13:56:07.753Z,64.62
2022-12-24T14:01:14.794Z,64.89
2022-12-24T14:06:26.485Z,64.31
2022-12-24T14:11:34.603Z,64.24
2022-12-24T14:16:49.997Z,64.31
2022-12-24T14:22:02.647Z,64.12
2022-12-24T14:27:18.616Z,65.00
2022-12-24T14:32:22.015Z,64.69
2022-12-24T14:37:32.984Z,65.08
2022-12-24T14:42:46.576Z,64.10
2022-12-24T14:47:57.921Z,64.66
2022-12-24T14:53:19.067Z,64.05
2022-12-24T14:58:26.450Z,64.42
2022-12-24T15:03:32.447Z,64.31
2022-12-24T15:08:41.793Z,63.92
2022-12-24T15:13:49.359Z,64.24
2022-12-24T15:18:56.908Z,64.24
2022-12-24T15:24:03.171Z,64.58
2022-12-24T15:29:15.952Z,63.93
2022-12-24T15:34:28.138Z,64.16
2022-12-24T15:39:33.423Z,63.82
2022-12-24T15:44:39.084Z,64.00
2022-12-24T15:49:47.602Z,64.26
2022-12-24T15:54:57.675Z,64.10
2022-12-24T16:00:02.706Z,64.25
2022-12-24T16:05:30.507Z,63.44
2022-12-24T16:10:36.015Z,63.28
2022-12-24T16:15:49.726Z,63.59
2022-12-24T16:20:55.544Z,64.17
2022-12-24T16:26:01.043Z,63.49
2022-12-24T16:31:05.093Z,64.18
2022-12-24T16:36:09.117Z,63.85
2022-12-24T16:41:14.117Z,63.73
2022-12-24T16:46:17.777Z,63.55
2022-12-24T16:51:21.214Z,63.15
2022-12-24T16:56:26.155Z,63.31
2022-12-24T17:01:29.302Z,63.10
2022-12-24T17:06:32.876Z,63.76
2022-12-24T17:11:37.784Z,64.18
2022-12-24T17:16:40.816Z,63.16
2022-12-24T17:21:44.343Z,63.48
2022-12-24T17:26:49.301Z,63.14
2022-12-24T17:31:53.329Z,63.95
2022-12-24T17:36:56.815Z,63.54
2022-12-24T17:42:01.857Z,63.02
2022-12-24T17:47:05.494Z,62.34
2022-12-24T17:52:08.809Z,62.81
2022-12-24T17:57:13.746Z,63.68
2022-12-24T18:02:17.300Z,63.51
2022-12-24T18:07:20.723Z,63.89
2022-12-24T18:12:25.836Z,64.26
2022-12-24T18:17:29.343Z,64.09
2022-12-24T18:22:32.748Z,63.97
2022-12-24T18:27:38.153Z,63.88
2022-12-24T18:32:41.698Z,63.98
2022-12-24T18:37:45.037Z,63.71
2022-12-24T18:42:49.828Z,64.74
2022-12-24T18:47:53.146Z,64.16
2022-12-24T18:52:56.638Z,64.50
2022-12-24T18:58:01.377Z,64.11
2022-12-24T19:03:05.065Z,63.81
2022-12-24T19:08:37.624Z,63.83
2022-12-24T19:13:33.452Z,64.45
2022-12-24T19:18:36.513Z,63.16
2022-12-24T19:23:40.062Z,64.38
2022-12-24T19:28:45.255Z,63.81
2022-12-24T19:33:50.488Z,63.68
2022-12-24T19:38:54.313Z,63.13
2022-12-24T19:44:01.208Z,63.61
2022-12-24T19:49:06.946Z,62.93
2022-12-24T19:54:18.690Z,63.13
2022-12-24T19:59:24.013Z,63.23
2022-12-24T20:04:27.512Z,62.98
2022-12-24T20:09:32.919Z,62.90
2022-12-24T20:14:37.833Z,62.65
2022-12-24T20:19:42.537Z,62.58
2022-12-24T20:24:46.203Z,62.98
2022-12-24T20:29:51.000Z,62.71
2022-12-24T20:34:54.525Z,62.46
2022-12-24T20:39:58.006Z,62.20
2022-12-24T20:45:04.494Z,62.66
2022-12-24T20:50:09.026Z,62.61
2022-12-24T20:55:12.445Z,62.47
2022-12-24T21:00:18.605Z,62.71
2022-12-24T21:05:22.120Z,62.37
2022-12-24T21:10:30.706Z,62.17
2022-12-24T21:15:40.593Z,62.80
2022-12-24T21:20:44.089Z,63.10
2022-12-24T21:25:57.870Z,61.98
2022-12-24T21:31:02.887Z,62.83
2022-12-24T21:36:06.589Z,63.00
2022-12-24T21:41:12.459Z,61.97
2022-12-24T21:46:20.209Z,62.11
2022-12-24T21:51:24.422Z,61.20
2022-12-24T21:56:27.887Z,61.91
2022-12-24T22:01:32.867Z,61.40
2022-12-24T22:06:53.721Z,61.30
2022-12-24T22:11:57.201Z,61.85
2022-12-24T22:17:02.192Z,61.40
2022-12-24T22:22:05.710Z,61.49
2022-12-24T22:27:09.125Z,61.10
2022-12-24T22:32:13.989Z,61.12
2022-12-24T22:37:17.128Z,61.02
2022-12-24T22:42:20.989Z,60.98
2022-12-24T22:47:25.790Z,60.63
2022-12-24T22:52:29.614Z,60.47
2022-12-24T22:57:33.160Z,59.92
2022-12-24T23:02:38.186Z,60.28
2022-12-24T23:07:41.851Z,60.29
2022-12-24T23:13:02.833Z,59.35
2022-12-24T23:18:08.758Z,59.16
2022-12-24T23:23:12.708Z,59.48
2022-12-24T23:28:16.043Z,59.32
2022-12-24T23:33:21.049Z,59.33
2022-12-24T23:38:24.343Z,59.00
2022-12-24T23:43:27.910Z,58.78
2022-12-24T23:48:32.971Z,59.21
2022-12-24T23:53:36.524Z,58.74
2022-12-24T23:58:40.668Z,58.51
